createdAt,value
2018-04-14T00:01:14.044Z,6.23
2018-04-14T00:03:44.889Z,6.27
2018-04-14T00:06:15.722Z,6.35
2018-04-14T00:08:46.597Z,6.25
2018-04-14T00:11:17.470Z,6.20
2018-04-14T00:13:48.289Z,6.14
2018-04-14T00:16:19.231Z,6.15
2018-04-14T00:18:50.089Z,6.24
2018-04-14T00:21:20.936Z,6.21
2018-04-14T00:23:51.785Z,6.32
2018-04-14T00:26:22.598Z,6.28
2018-04-14T00:28:53.448Z,6.30
2018-04-14T00:31:24.236Z,6.26
2018-04-14T00:33:55.048Z,6.31
2018-04-14T00:36:25.886Z,6.24
2018-04-14T00:38:56.792Z,6.19
2018-04-14T00:41:27.733Z,6.04
2018-04-14T00:43:58.576Z,5.98
2018-04-14T00:46:29.359Z,5.97
2018-04-14T00:49:00.225Z,5.98
2018-04-14T00:51:31.001Z,6.04
2018-04-14T00:54:01.896Z,6.01
2018-04-14T00:56:32.708Z,6.00
2018-04-14T00:59:03.570Z,5.88
2018-04-14T01:01:34.376Z,5.83
2018-04-14T01:04:06.300Z,5.80
2018-04-14T01:06:37.115Z,5.72
2018-04-14T01:09:07.944Z,5.69
2018-04-14T01:11:38.794Z,5.73
2018-04-14T01:14:09.628Z,5.66
2018-04-14T01:16:40.471Z,5.69
2018-04-14T01:19:11.436Z,5.71
2018-04-14T01:21:42.264Z,5.66
2018-04-14T01:24:13.143Z,5.65
2018-04-14T01:26:43.935Z,5.54
2018-04-14T01:29:14.748Z,5.43
2018-04-14T01:31:45.592Z,5.39
2018-04-14T01:34:16.456Z,5.36
2018-04-14T01:36:47.265Z,5.51
2018-04-14T01:39:18.078Z,5.35
2018-04-14T01:41:48.916Z,5.34
2018-04-14T01:44:21.828Z,5.41
2018-04-14T01:46:52.599Z,5.33
2018-04-14T01:49:23.484Z,5.41
2018-04-14T01:51:54.291Z,5.38
2018-04-14T01:54:25.137Z,5.39
2018-04-14T01:56:55.977Z,5.34
2018-04-14T01:59:26.791Z,5.32
2018-04-14T02:01:57.628Z,5.34
2018-04-14T02:04:28.460Z,5.28
2018-04-14T02:06:59.271Z,5.27
2018-04-14T02:09:30.092Z,5.27
2018-04-14T02:12:00.892Z,5.34
2018-04-14T02:14:31.687Z,5.33
2018-04-14T02:17:02.571Z,5.31
2018-04-14T02:19:33.414Z,5.24
2018-04-14T02:22:04.267Z,5.34
2018-04-14T02:24:35.091Z,5.39
2018-04-14T02:27:05.924Z,5.39
2018-04-14T02:29:37.784Z,5.37
2018-04-14T02:32:08.605Z,5.35
2018-04-14T02:34:39.474Z,5.34
2018-04-14T02:37:10.278Z,5.36
2018-04-14T02:39:41.107Z,5.38
2018-04-14T02:42:11.914Z,5.43
2018-04-14T02:44:42.794Z,5.40
2018-04-14T02:47:13.640Z,5.44
2018-04-14T02:49:44.484Z,5.37
2018-04-14T02:52:15.387Z,5.42
2018-04-14T02:54:46.178Z,5.43
2018-04-14T02:57:16.989Z,5.34
2018-04-14T02:59:47.816Z,5.28
2018-04-14T03:02:18.618Z,5.33
2018-04-14T03:04:49.441Z,5.37
2018-04-14T03:07:20.275Z,5.36
2018-04-14T03:09:51.117Z,5.40
2018-04-14T03:12:21.924Z,5.40
2018-04-14T03:14:52.790Z,5.43
2018-04-14T03:17:23.613Z,5.36
2018-04-14T03:19:54.428Z,5.37
2018-04-14T03:22:25.498Z,5.32
2018-04-14T03:24:56.308Z,5.21
2018-04-14T03:27:27.105Z,5.25
2018-04-14T03:29:57.951Z,5.20
2018-04-14T03:32:28.771Z,5.28
2018-04-14T03:34:59.608Z,5.26
2018-04-14T03:37:30.403Z,5.20
2018-04-14T03:40:01.240Z,5.18
2018-04-14T03:42:32.074Z,5.04
2018-04-14T03:45:02.947Z,5.05
2018-04-14T03:47:33.757Z,5.07
2018-04-14T03:50:04.682Z,5.12
2018-04-14T03:52:35.827Z,5.18
2018-04-14T03:55:06.635Z,5.32
2018-04-14T03:57:37.429Z,5.26
2018-04-14T04:00:08.275Z,5.39
2018-04-14T04:02:39.130Z,5.39
2018-04-14T04:05:10.004Z,5.25
2018-04-14T04:07:40.800Z,5.10
2018-04-14T04:10:11.638Z,5.06
2018-04-14T04:12:42.453Z,4.99
2018-04-14T04:15:13.277Z,5.04
2018-04-14T04:17:44.114Z,5.13
2018-04-14T04:20:21.980Z,5.21
2018-04-14T04:23:04.980Z,5.26
2018-04-14T04:25:38.681Z,5.26
2018-04-14T04:28:09.591Z,5.25
2018-04-14T04:30:40.382Z,5.19
2018-04-14T04:33:11.267Z,5.24
2018-04-14T04:35:42.095Z,5.34
2018-04-14T04:38:12.900Z,5.33
2018-04-14T04:40:43.734Z,5.35
2018-04-14T04:43:14.503Z,5.36
2018-04-14T04:45:46.110Z,5.43
2018-04-14T04:48:16.919Z,5.49
2018-04-14T04:50:47.750Z,5.61
2018-04-14T04:53:18.649Z,5.62
2018-04-14T04:55:49.471Z,5.68
2018-04-14T04:58:20.328Z,5.72
2018-04-14T05:00:51.172Z,5.79
2018-04-14T05:03:22.005Z,5.82
2018-04-14T05:05:52.806Z,5.90
2018-04-14T05:08:23.668Z,5.97
2018-04-14T05:11:01.563Z,6.06
2018-04-14T05:13:32.530Z,6.11
2018-04-14T05:16:03.373Z,6.15
2018-04-14T05:18:34.193Z,6.21
2018-04-14T05:21:06.097Z,6.29
2018-04-14T05:23:36.992Z,6.33
2018-04-14T05:26:07.832Z,6.40
2018-04-14T05:28:38.620Z,6.46
2018-04-14T05:31:09.431Z,6.54
2018-04-14T05:33:40.252Z,6.62
2018-04-14T05:36:11.089Z,6.67
2018-04-14T05:38:41.913Z,6.71
2018-04-14T05:41:12.792Z,6.78
2018-04-14T05:43:43.560Z,6.91
2018-04-14T05:46:14.380Z,7.43
2018-04-14T05:48:45.180Z,8.16
2018-04-14T05:51:16.060Z,8.50
2018-04-14T05:53:46.879Z,8.93
2018-04-14T05:56:18.879Z,8.99
2018-04-14T05:58:49.764Z,9.36
2018-04-14T06:01:20.585Z,10.07
2018-04-14T06:03:51.513Z,11.34
2018-04-14T06:06:22.452Z,12.51
2018-04-14T06:08:53.336Z,12.01
2018-04-14T06:11:25.242Z,11.93
2018-04-14T06:13:56.060Z,11.08
2018-04-14T06:16:26.922Z,10.33
2018-04-14T06:18:57.816Z,10.07
2018-04-14T06:21:28.695Z,9.77
2018-04-14T06:23:59.523Z,9.61
2018-04-14T06:26:30.383Z,9.97
2018-04-14T06:29:01.204Z,10.88
2018-04-14T06:31:32.048Z,12.18
2018-04-14T06:34:02.876Z,13.20
2018-04-14T06:36:33.741Z,13.10
2018-04-14T06:39:04.566Z,13.44
2018-04-14T06:41:37.496Z,14.34
2018-04-14T06:44:08.396Z,14.26
2018-04-14T06:46:39.218Z,15.27
2018-04-14T06:49:16.954Z,16.15
2018-04-14T06:51:48.811Z,16.38
2018-04-14T06:54:19.661Z,16.58
2018-04-14T06:56:50.503Z,17.40
2018-04-14T06:59:21.361Z,17.34
2018-04-14T07:01:52.213Z,17.65
2018-04-14T07:04:23.123Z,18.46
2018-04-14T07:06:53.943Z,18.44
2018-04-14T07:09:24.785Z,17.29
2018-04-14T07:11:55.576Z,17.32
2018-04-14T07:14:26.388Z,18.36
2018-04-14T07:16:57.254Z,18.80
2018-04-14T07:19:28.067Z,18.91
2018-04-14T07:21:58.998Z,18.75
2018-04-14T07:24:29.883Z,19.70
2018-04-14T07:27:00.730Z,18.68
2018-04-14T07:29:31.569Z,17.78
2018-04-14T07:32:02.499Z,18.48
2018-04-14T07:34:33.325Z,18.49
2018-04-14T07:37:04.147Z,18.35
2018-04-14T07:39:35.006Z,19.20
2018-04-14T07:42:05.919Z,19.89
2018-04-14T07:44:36.973Z,19.63
2018-04-14T07:47:07.792Z,19.91
2018-04-14T07:49:38.582Z,19.57
2018-04-14T07:52:09.440Z,19.32
2018-04-14T07:54:42.282Z,19.44
2018-04-14T07:57:13.132Z,19.37
2018-04-14T07:59:43.945Z,19.60
2018-04-14T08:02:14.745Z,19.63
2018-04-14T08:04:45.590Z,19.21
2018-04-14T08:07:16.485Z,20.12
2018-04-14T08:09:47.382Z,20.03
2018-04-14T08:12:18.308Z,20.91
2018-04-14T08:14:49.157Z,20.08
2018-04-14T08:17:21.140Z,18.78
2018-04-14T08:19:51.982Z,18.69
2018-04-14T08:22:23.940Z,18.11
2018-04-14T08:24:59.062Z,19.75
2018-04-14T08:27:29.941Z,20.61
2018-04-14T08:30:00.772Z,19.50
2018-04-14T08:32:31.609Z,20.00
2018-04-14T08:35:02.478Z,20.10
2018-04-14T08:37:33.347Z,19.76
2018-04-14T08:40:04.171Z,19.39
2018-04-14T08:42:36.119Z,19.71
2018-04-14T08:45:07.053Z,19.47
2018-04-14T08:47:37.909Z,19.85
2018-04-14T08:50:08.720Z,19.70
2018-04-14T08:52:40.491Z,20.10
2018-04-14T08:55:11.312Z,19.70
2018-04-14T08:57:42.160Z,19.75
2018-04-14T09:00:15.202Z,18.04
2018-04-14T09:02:46.034Z,19.49
2018-04-14T09:05:16.855Z,19.34
2018-04-14T09:07:47.676Z,19.72
2018-04-14T09:10:18.494Z,19.70
2018-04-14T09:12:49.457Z,18.60
2018-04-14T09:15:20.293Z,19.05
2018-04-14T09:17:51.130Z,19.10
2018-04-14T09:20:21.990Z,20.32
2018-04-14T09:22:52.869Z,20.57
2018-04-14T09:25:23.705Z,19.97
2018-04-14T09:27:54.544Z,20.80
2018-04-14T09:30:25.356Z,20.94
2018-04-14T09:32:56.252Z,20.09
2018-04-14T09:35:27.063Z,19.84
2018-04-14T09:37:57.909Z,21.11
2018-04-14T09:40:28.748Z,21.47
2018-04-14T09:42:59.599Z,21.44
2018-04-14T09:45:30.457Z,20.92
2018-04-14T09:48:01.310Z,22.04
2018-04-14T09:50:32.143Z,22.24
2018-04-14T09:53:03.004Z,22.90
2018-04-14T09:55:33.886Z,23.18
2018-04-14T09:58:04.799Z,23.05
2018-04-14T10:00:41.878Z,22.91
2018-04-14T10:03:18.839Z,22.85
2018-04-14T10:05:49.697Z,23.17
2018-04-14T10:08:20.508Z,23.34
2018-04-14T10:10:51.343Z,23.12
2018-04-14T10:13:22.152Z,23.70
2018-04-14T10:15:58.606Z,22.52
2018-04-14T10:18:29.454Z,23.13
2018-04-14T10:21:00.252Z,22.93
2018-04-14T10:23:34.077Z,23.69
2018-04-14T10:26:05.002Z,23.76
2018-04-14T10:28:35.846Z,23.24
2018-04-14T10:31:06.680Z,23.17
2018-04-14T10:33:37.603Z,23.72
2018-04-14T10:36:08.417Z,23.92
2018-04-14T10:38:39.275Z,23.73
2018-04-14T10:41:10.601Z,24.13
2018-04-14T10:43:41.431Z,24.11
2018-04-14T10:46:12.241Z,23.86
2018-04-14T10:48:43.080Z,23.85
2018-04-14T10:51:13.951Z,23.10
2018-04-14T10:53:44.804Z,23.64
2018-04-14T10:56:15.640Z,22.26
2018-04-14T10:58:46.487Z,22.33
2018-04-14T11:01:17.291Z,22.28
2018-04-14T11:03:48.164Z,22.60
2018-04-14T11:06:18.983Z,23.07
2018-04-14T11:08:49.804Z,23.43
2018-04-14T11:11:20.601Z,23.30
2018-04-14T11:13:51.445Z,23.90
2018-04-14T11:16:22.382Z,24.24
2018-04-14T11:18:53.219Z,24.93
2018-04-14T11:21:25.051Z,24.59
2018-04-14T11:23:55.913Z,24.31
2018-04-14T11:26:26.706Z,24.38
2018-04-14T11:28:57.559Z,24.40
2018-04-14T11:31:28.416Z,24.31
2018-04-14T11:33:59.253Z,23.08
2018-04-14T11:36:30.096Z,23.31
2018-04-14T11:39:00.994Z,23.84
2018-04-14T11:41:31.809Z,24.41
2018-04-14T11:44:03.662Z,24.39
2018-04-14T11:46:34.482Z,24.32
2018-04-14T11:49:05.340Z,24.46
2018-04-14T11:51:36.196Z,24.37
2018-04-14T11:54:07.165Z,23.51
2018-04-14T11:56:37.977Z,24.28
2018-04-14T11:59:08.842Z,24.59
2018-04-14T12:01:39.696Z,24.78
2018-04-14T12:04:10.504Z,24.65
2018-04-14T12:06:41.308Z,25.04
2018-04-14T12:09:12.162Z,24.15
2018-04-14T12:11:42.983Z,23.96
2018-04-14T12:14:16.948Z,24.28
2018-04-14T12:16:47.747Z,25.04
2018-04-14T12:19:18.552Z,25.45
2018-04-14T12:21:49.482Z,24.45
2018-04-14T12:24:20.292Z,24.83
2018-04-14T12:26:51.154Z,25.64
2018-04-14T12:29:22.048Z,25.22
2018-04-14T12:31:52.888Z,24.68
2018-04-14T12:34:23.703Z,24.80
2018-04-14T12:36:54.515Z,25.14
2018-04-14T12:39:25.344Z,25.91
2018-04-14T12:41:56.131Z,26.32
2018-04-14T12:44:26.951Z,25.79
2018-04-14T12:46:57.779Z,25.92
2018-04-14T12:49:28.597Z,26.53
2018-04-14T12:51:59.376Z,26.08
2018-04-14T12:54:30.180Z,26.20
2018-04-14T12:57:01.057Z,27.69
2018-04-14T12:59:31.848Z,26.46
2018-04-14T13:02:02.684Z,24.62
2018-04-14T13:04:33.492Z,24.45
2018-04-14T13:07:04.272Z,25.15
2018-04-14T13:09:35.225Z,24.87
2018-04-14T13:12:06.037Z,24.58
2018-04-14T13:14:36.974Z,25.40
2018-04-14T13:17:07.777Z,27.01
2018-04-14T13:19:38.604Z,27.92
2018-04-14T13:22:09.404Z,27.55
2018-04-14T13:24:40.259Z,29.02
2018-04-14T13:27:11.049Z,28.45
2018-04-14T13:29:41.839Z,28.10
2018-04-14T13:32:12.630Z,27.80
2018-04-14T13:34:44.213Z,28.55
2018-04-14T13:37:15.075Z,28.56
2018-04-14T13:39:45.891Z,26.64
2018-04-14T13:42:16.693Z,26.39
2018-04-14T13:44:47.494Z,25.92
2018-04-14T13:47:18.267Z,26.47
2018-04-14T13:49:49.079Z,25.24
2018-04-14T13:52:19.904Z,24.89
2018-04-14T13:54:50.772Z,25.05
2018-04-14T13:57:21.565Z,26.30
2018-04-14T13:59:52.456Z,27.07
2018-04-14T14:02:23.260Z,27.01
2018-04-14T14:04:54.058Z,27.98
2018-04-14T14:07:24.845Z,28.19
2018-04-14T14:09:57.784Z,27.81
2018-04-14T14:12:28.627Z,27.95
2018-04-14T14:14:59.415Z,27.41
2018-04-14T14:17:31.333Z,26.96
2018-04-14T14:20:02.167Z,27.65
2018-04-14T14:22:33.003Z,28.13
2018-04-14T14:25:03.821Z,29.27
2018-04-14T14:27:34.622Z,29.13
2018-04-14T14:30:05.438Z,27.66
2018-04-14T14:32:36.247Z,26.79
2018-04-14T14:35:07.076Z,28.86
2018-04-14T14:37:37.944Z,28.70
2018-04-14T14:40:08.799Z,29.74
2018-04-14T14:42:39.780Z,28.83
2018-04-14T14:45:10.533Z,29.03
2018-04-14T14:47:41.347Z,29.08
2018-04-14T14:50:18.387Z,29.20
2018-04-14T14:53:05.123Z,29.77
2018-04-14T14:55:35.946Z,30.00
2018-04-14T14:58:06.745Z,29.71
2018-04-14T15:00:37.610Z,27.22
2018-04-14T15:03:08.415Z,28.75
2018-04-14T15:05:39.234Z,29.09
2018-04-14T15:08:10.053Z,30.23
2018-04-14T15:10:40.886Z,30.55
2018-04-14T15:13:11.680Z,31.04
2018-04-14T15:15:42.530Z,31.63
2018-04-14T15:18:13.320Z,31.26
2018-04-14T15:20:44.238Z,27.96
2018-04-14T15:23:15.038Z,28.06
2018-04-14T15:25:45.896Z,28.86
2018-04-14T15:28:16.712Z,28.95
2018-04-14T15:30:47.544Z,29.56
2018-04-14T15:33:18.340Z,29.04
2018-04-14T15:35:49.183Z,28.10
2018-04-14T15:38:19.959Z,27.68
2018-04-14T15:40:50.804Z,27.30
2018-04-14T15:43:21.620Z,28.12
2018-04-14T15:45:52.992Z,28.44
2018-04-14T15:48:23.783Z,27.74
2018-04-14T15:50:54.572Z,27.20
2018-04-14T15:53:25.350Z,25.41
2018-04-14T15:55:56.234Z,24.43
2018-04-14T15:58:27.016Z,24.09
2018-04-14T16:00:57.908Z,24.05
2018-04-14T16:03:28.693Z,23.86
2018-04-14T16:05:59.519Z,23.42
2018-04-14T16:08:30.345Z,23.00
2018-04-14T16:11:01.150Z,22.51
2018-04-14T16:13:31.948Z,21.95
2018-04-14T16:16:02.767Z,21.62
2018-04-14T16:18:33.590Z,21.78
2018-04-14T16:21:04.434Z,22.04
2018-04-14T16:23:35.235Z,21.52
2018-04-14T16:26:06.066Z,21.08
2018-04-14T16:28:36.931Z,20.89
2018-04-14T16:31:07.752Z,21.02
2018-04-14T16:33:38.652Z,20.95
2018-04-14T16:36:09.484Z,21.11
2018-04-14T16:38:40.310Z,21.25
2018-04-14T16:41:11.137Z,21.04
2018-04-14T16:43:41.938Z,20.88
2018-04-14T16:46:12.763Z,20.78
2018-04-14T16:48:43.550Z,20.41
2018-04-14T16:51:14.372Z,20.12
2018-04-14T16:53:45.426Z,19.96
2018-04-14T16:56:16.306Z,19.98
2018-04-14T16:58:47.214Z,19.85
2018-04-14T17:01:18.108Z,19.71
2018-04-14T17:03:48.910Z,19.57
2018-04-14T17:06:19.762Z,19.47
2018-04-14T17:08:50.736Z,19.39
2018-04-14T17:11:28.145Z,19.27
2018-04-14T17:13:59.069Z,19.22
2018-04-14T17:16:29.959Z,19.12
2018-04-14T17:19:00.781Z,19.01
2018-04-14T17:21:31.814Z,18.94
2018-04-14T17:24:02.656Z,18.82
2018-04-14T17:26:33.536Z,18.77
2018-04-14T17:29:04.374Z,18.68
2018-04-14T17:31:35.190Z,18.58
2018-04-14T17:34:06.833Z,18.42
2018-04-14T17:36:37.737Z,18.25
2018-04-14T17:39:08.521Z,18.20
2018-04-14T17:41:39.341Z,18.10
2018-04-14T17:44:10.156Z,17.92
2018-04-14T17:46:41.009Z,17.88
2018-04-14T17:49:11.952Z,17.73
2018-04-14T17:51:42.872Z,17.61
2018-04-14T17:54:13.681Z,17.42
2018-04-14T17:56:59.508Z,17.29
2018-04-14T17:59:30.320Z,17.20
2018-04-14T18:02:01.164Z,17.10
2018-04-14T18:04:32.046Z,16.84
2018-04-14T18:07:02.931Z,16.68
2018-04-14T18:09:33.865Z,16.41
2018-04-14T18:12:04.715Z,16.34
2018-04-14T18:14:35.532Z,16.30
2018-04-14T18:17:06.369Z,16.11
2018-04-14T18:19:37.137Z,16.10
2018-04-14T18:22:07.951Z,15.93
2018-04-14T18:24:40.853Z,15.79
2018-04-14T18:27:11.692Z,15.64
2018-04-14T18:29:43.280Z,15.34
2018-04-14T18:32:14.105Z,15.17
2018-04-14T18:34:44.936Z,15.14
2018-04-14T18:37:15.801Z,15.18
2018-04-14T18:39:46.623Z,15.29
2018-04-14T18:42:17.533Z,15.12
2018-04-14T18:44:48.301Z,15.05
2018-04-14T18:47:19.133Z,14.89
2018-04-14T18:49:52.024Z,14.84
2018-04-14T18:52:22.837Z,14.76
2018-04-14T18:54:53.779Z,14.69
2018-04-14T18:57:24.706Z,14.69
2018-04-14T18:59:55.515Z,14.57
2018-04-14T19:02:26.399Z,14.43
2018-04-14T19:04:57.195Z,14.34
2018-04-14T19:07:28.010Z,14.18
2018-04-14T19:09:58.805Z,14.03
2018-04-14T19:12:29.744Z,13.95
2018-04-14T19:15:00.664Z,13.89
2018-04-14T19:17:31.504Z,13.88
2018-04-14T19:20:02.413Z,13.78
2018-04-14T19:22:33.292Z,13.80
2018-04-14T19:25:04.113Z,14.02
2018-04-14T19:27:34.904Z,14.02
2018-04-14T19:30:05.747Z,13.95
2018-04-14T19:32:37.627Z,13.84
2018-04-14T19:35:08.444Z,13.73
2018-04-14T19:37:39.304Z,13.59
2018-04-14T19:40:10.075Z,13.57
2018-04-14T19:49:08.420Z,13.54
2018-04-14T19:51:39.206Z,13.47
2018-04-14T19:54:09.959Z,13.61
2018-04-14T19:56:40.734Z,13.65
2018-04-14T19:59:11.535Z,13.62
2018-04-14T20:01:42.303Z,13.67
2018-04-14T20:04:13.048Z,13.69
2018-04-14T20:06:43.817Z,13.52
2018-04-14T20:09:14.607Z,13.45
2018-04-14T20:11:45.373Z,13.48
2018-04-14T20:14:16.131Z,13.38
2018-04-14T20:16:46.883Z,13.17
2018-04-14T20:19:17.742Z,13.10
2018-04-14T20:21:48.491Z,13.08
2018-04-14T20:24:19.262Z,12.95
2018-04-14T20:26:50.011Z,12.95
2018-04-14T20:29:20.759Z,13.02
2018-04-14T20:31:51.520Z,12.92
2018-04-14T20:34:22.300Z,12.85
2018-04-14T20:36:53.075Z,12.80
2018-04-14T20:39:23.823Z,12.77
2018-04-14T20:41:54.603Z,12.67
2018-04-14T20:44:25.383Z,12.61
2018-04-14T20:46:56.138Z,12.54
2018-04-14T20:49:26.906Z,12.63
2018-04-14T20:51:57.737Z,12.41
2018-04-14T20:54:28.523Z,12.34
2018-04-14T20:56:59.276Z,12.15
2018-04-14T20:59:30.100Z,12.13
2018-04-14T21:02:00.859Z,12.02
2018-04-14T21:04:31.726Z,12.21
2018-04-14T21:07:02.498Z,12.08
2018-04-14T21:09:33.268Z,12.12
2018-04-14T21:12:04.019Z,11.99
2018-04-14T21:14:34.792Z,12.01
2018-04-14T21:17:05.542Z,11.92
2018-04-14T21:19:36.299Z,11.84
2018-04-14T21:22:07.055Z,11.73
2018-04-14T21:24:37.816Z,11.57
2018-04-14T21:27:08.564Z,11.41
2018-04-14T21:29:39.339Z,11.37
2018-04-14T21:32:10.095Z,11.40
2018-04-14T21:34:40.885Z,11.24
2018-04-14T21:37:11.719Z,11.18
2018-04-14T21:39:42.500Z,11.14
2018-04-14T21:42:13.303Z,10.89
2018-04-14T21:44:44.093Z,10.87
2018-04-14T21:47:14.876Z,10.83
2018-04-14T21:49:45.698Z,10.70
2018-04-14T21:52:16.450Z,10.81
2018-04-14T22:07:57.747Z,11.37
2018-04-14T22:10:28.505Z,11.26
2018-04-14T22:12:59.269Z,11.21
2018-04-14T22:15:30.046Z,11.12
2018-04-14T22:18:00.791Z,11.07
2018-04-14T22:20:31.600Z,11.07
2018-04-14T22:23:02.371Z,11.11
2018-04-14T22:25:33.155Z,11.10
2018-04-14T22:28:03.924Z,11.10
2018-04-14T22:30:34.711Z,11.04
2018-04-14T22:33:05.475Z,11.01
2018-04-14T22:35:36.243Z,11.04
2018-04-14T22:38:06.991Z,11.16
2018-04-14T22:40:37.759Z,11.11
2018-04-14T22:43:08.506Z,11.04
2018-04-14T22:45:39.279Z,10.95
2018-04-14T22:48:10.027Z,10.81
2018-04-14T22:50:40.817Z,10.67
2018-04-14T22:53:11.599Z,10.55
2018-04-14T22:55:42.402Z,10.53
2018-04-14T22:58:13.143Z,10.51
2018-04-14T23:00:43.900Z,10.48
2018-04-14T23:03:14.642Z,10.56
2018-04-14T23:05:45.423Z,10.63
2018-04-14T23:08:16.175Z,10.60
2018-04-14T23:10:46.931Z,10.59
2018-04-14T23:13:17.666Z,10.54
2018-04-14T23:15:48.448Z,10.58
2018-04-14T23:18:19.186Z,10.64
2018-04-14T23:20:49.963Z,10.58
2018-04-14T23:23:20.707Z,10.51
2018-04-14T23:25:51.467Z,10.67
2018-04-14T23:28:22.223Z,10.56
2018-04-14T23:30:52.991Z,10.44
2018-04-14T23:33:23.743Z,10.38
2018-04-14T23:35:54.519Z,10.40
2018-04-14T23:38:25.285Z,10.41
2018-04-14T23:40:56.090Z,10.43
2018-04-14T23:43:26.830Z,10.39
2018-04-14T23:45:57.595Z,10.40
2018-04-14T23:48:28.343Z,10.38
2018-04-14T23:50:59.122Z,10.35
2018-04-14T23:53:29.890Z,10.32
2018-04-14T23:56:00.683Z,10.26
2018-04-14T23:58:31.426Z,10.18
